Roshchino International Airport

Airport
ICAO code: 
USTR
IATA Code: 
TJM
Summary
ICAO Region: 
APAC
Territory: 
Location: 
Novoroshchino, Tyomen Oblast
Serving: 
Tyumen
Elevation: 
371 ft
Coordinates: 
Aerial View: 
57° 10' 53.316" N, 65° 20' 55.559" E
Metar
Observation
USTR 210130Z 19006MPS CAVOK M16/M18 Q1020 R21/390045 R30/390045 NOSIG
Station
ROSCHINO
Date/Time
2022-01-21 01:30:00
Wind direction
190°
Lowest cloud amount
clouds and visibility OK
Temperature
-16°C
Dew point
-18°C
Humidity
84%
QNH
1020 hPa
Weather condition
n/a

Airport in Tyumen Oblast, Russia located 13 km west of the city of Tyumen.

Climatology

Humid continental climate (Köppen climate classification Dfb)

Runways

Designator Length Width Surface Rops
12/30 2704 50 ASP Yes/Yes
3/21 3003 45 PEM Yes/Yes
Airport map: 
Aerial View: 

Accidents and Serious Incidents at or in the vicinity of USTR

SKYbrary Partners:

Safety knowledge contributed by: